sensor_id;sensor_type;location;lat;lon;timestamp;pressure;altitude;pressure_sealevel;temperature;humidity
15670;BME280;18524;45.190;5.732;2022-07-06T00:04:18;99508.66;;;26.41;39.51
15670;BME280;18524;45.190;5.732;2022-07-06T00:09:08;99513.47;;;26.26;38.98
15670;BME280;18524;45.190;5.732;2022-07-06T00:13:59;99517.63;;;26.22;39.39
15670;BME280;18524;45.190;5.732;2022-07-06T00:18:50;99514.13;;;26.21;40.10
15670;BME280;18524;45.190;5.732;2022-07-06T00:23:40;99506.72;;;26.16;40.36
15670;BME280;18524;45.190;5.732;2022-07-06T00:28:31;99510.22;;;26.17;40.35
15670;BME280;18524;45.190;5.732;2022-07-06T00:33:21;99515.59;;;26.17;39.89
15670;BME280;18524;45.190;5.732;2022-07-06T00:38:13;99504.28;;;26.08;39.89
15670;BME280;18524;45.190;5.732;2022-07-06T00:43:03;99510.25;;;26.10;40.51
15670;BME280;18524;45.190;5.732;2022-07-06T00:47:53;99509.88;;;26.07;40.11
15670;BME280;18524;45.190;5.732;2022-07-06T00:52:46;99512.78;;;26.05;39.78
15670;BME280;18524;45.190;5.732;2022-07-06T00:57:37;99512.44;;;25.89;41.00
15670;BME280;18524;45.190;5.732;2022-07-06T01:02:30;99518.63;;;25.89;41.01
15670;BME280;18524;45.190;5.732;2022-07-06T01:07:21;99518.22;;;25.85;40.81
15670;BME280;18524;45.190;5.732;2022-07-06T01:12:12;99522.44;;;25.68;41.63
15670;BME280;18524;45.190;5.732;2022-07-06T01:17:02;99529.22;;;25.64;41.63
15670;BME280;18524;45.190;5.732;2022-07-06T01:21:53;99530.06;;;25.71;41.56
15670;BME280;18524;45.190;5.732;2022-07-06T01:26:44;99525.75;;;25.70;42.05
15670;BME280;18524;45.190;5.732;2022-07-06T01:31:34;99521.59;;;25.61;42.33
15670;BME280;18524;45.190;5.732;2022-07-06T01:36:25;99522.00;;;25.58;42.00
15670;BME280;18524;45.190;5.732;2022-07-06T01:41:16;99519.13;;;25.66;41.17
15670;BME280;18524;45.190;5.732;2022-07-06T01:46:06;99520.78;;;25.54;40.95
15670;BME280;18524;45.190;5.732;2022-07-06T01:50:57;99520.22;;;25.39;41.82
15670;BME280;18524;45.190;5.732;2022-07-06T01:55:47;99519.59;;;25.37;41.37
15670;BME280;18524;45.190;5.732;2022-07-06T02:00:38;99516.50;;;25.27;42.41
15670;BME280;18524;45.190;5.732;2022-07-06T02:05:28;99522.28;;;25.23;42.09
15670;BME280;18524;45.190;5.732;2022-07-06T02:10:18;99516.31;;;25.21;42.74
15670;BME280;18524;45.190;5.732;2022-07-06T02:15:09;99520.88;;;25.28;42.01
15670;BME280;18524;45.190;5.732;2022-07-06T02:19:59;99521.06;;;25.19;42.28
15670;BME280;18524;45.190;5.732;2022-07-06T02:24:50;99529.53;;;25.16;42.10
15670;BME280;18524;45.190;5.732;2022-07-06T02:29:40;99522.13;;;25.05;43.23
15670;BME280;18524;45.190;5.732;2022-07-06T02:34:30;99526.84;;;25.10;42.44
15670;BME280;18524;45.190;5.732;2022-07-06T02:39:21;99538.44;;;25.04;42.66
15670;BME280;18524;45.190;5.732;2022-07-06T02:44:11;99537.97;;;24.80;43.31
15670;BME280;18524;45.190;5.732;2022-07-06T02:49:02;99537.97;;;24.87;42.90
15670;BME280;18524;45.190;5.732;2022-07-06T02:53:52;99535.28;;;24.87;43.59
15670;BME280;18524;45.190;5.732;2022-07-06T02:58:42;99549.94;;;24.84;43.54
15670;BME280;18524;45.190;5.732;2022-07-06T03:03:33;99555.09;;;24.86;43.74
15670;BME280;18524;45.190;5.732;2022-07-06T03:08:23;99555.09;;;24.73;43.60
15670;BME280;18524;45.190;5.732;2022-07-06T03:13:14;99553.44;;;24.72;43.21
15670;BME280;18524;45.190;5.732;2022-07-06T03:18:04;99559.84;;;24.77;43.33
15670;BME280;18524;45.190;5.732;2022-07-06T03:22:54;99564.59;;;24.75;43.42
15670;BME280;18524;45.190;5.732;2022-07-06T03:27:45;99562.47;;;24.51;43.85
15670;BME280;18524;45.190;5.732;2022-07-06T03:32:35;99563.75;;;24.55;44.18
15670;BME280;18524;45.190;5.732;2022-07-06T03:37:25;99570.78;;;24.56;43.17
15670;BME280;18524;45.190;5.732;2022-07-06T03:42:16;99574.84;;;24.39;44.29
15670;BME280;18524;45.190;5.732;2022-07-06T03:47:06;99575.84;;;24.31;44.08
15670;BME280;18524;45.190;5.732;2022-07-06T03:51:57;99572.34;;;24.30;44.97
15670;BME280;18524;45.190;5.732;2022-07-06T03:56:47;99575.44;;;24.34;44.76
15670;BME280;18524;45.190;5.732;2022-07-06T04:01:37;99577.94;;;24.42;44.36
15670;BME280;18524;45.190;5.732;2022-07-06T04:06:28;99575.88;;;24.44;43.85
15670;BME280;18524;45.190;5.732;2022-07-06T04:11:18;99575.69;;;24.46;44.03
15670;BME280;18524;45.190;5.732;2022-07-06T04:16:09;99572.38;;;24.44;43.85
15670;BME280;18524;45.190;5.732;2022-07-06T04:20:59;99575.88;;;24.38;44.30
15670;BME280;18524;45.190;5.732;2022-07-06T04:25:50;99579.56;;;24.37;44.51
15670;BME280;18524;45.190;5.732;2022-07-06T04:30:40;99573.38;;;24.36;44.46
15670;BME280;18524;45.190;5.732;2022-07-06T04:35:30;99581.22;;;24.38;44.73
15670;BME280;18524;45.190;5.732;2022-07-06T04:40:21;99579.34;;;24.31;44.50
15670;BME280;18524;45.190;5.732;2022-07-06T04:45:11;99582.25;;;24.30;44.65
15670;BME280;18524;45.190;5.732;2022-07-06T04:50:03;99582.19;;;24.23;45.79
15670;BME280;18524;45.190;5.732;2022-07-06T04:54:54;99578.78;;;24.01;47.13
15670;BME280;18524;45.190;5.732;2022-07-06T04:59:45;99576.44;;;24.26;46.57
15670;BME280;18524;45.190;5.732;2022-07-06T05:04:35;99580.28;;;24.78;45.27
15670;BME280;18524;45.190;5.732;2022-07-06T05:09:25;99578.88;;;25.22;43.79
15670;BME280;18524;45.190;5.732;2022-07-06T05:14:16;99567.88;;;25.56;42.46
15670;BME280;18524;45.190;5.732;2022-07-06T05:19:06;99572.75;;;26.06;41.34
15670;BME280;18524;45.190;5.732;2022-07-06T05:23:57;99565.56;;;26.44;40.40
15670;BME280;18524;45.190;5.732;2022-07-06T05:28:47;99563.53;;;26.96;39.20
15670;BME280;18524;45.190;5.732;2022-07-06T05:33:38;99565.22;;;27.22;38.67
15670;BME280;18524;45.190;5.732;2022-07-06T05:38:28;99557.50;;;27.69;38.12
15670;BME280;18524;45.190;5.732;2022-07-06T05:43:18;99552.59;;;28.14;36.53
15670;BME280;18524;45.190;5.732;2022-07-06T05:48:09;99562.16;;;28.47;36.10
15670;BME280;18524;45.190;5.732;2022-07-06T05:53:19;99561.31;;;28.76;35.54
15670;BME280;18524;45.190;5.732;2022-07-06T05:58:10;99557.00;;;28.99;34.86
15670;BME280;18524;45.190;5.732;2022-07-06T06:03:00;99567.84;;;29.22;34.33
15670;BME280;18524;45.190;5.732;2022-07-06T06:07:51;99578.47;;;29.47;33.72
15670;BME280;18524;45.190;5.732;2022-07-06T06:12:43;99583.81;;;29.70;33.60
15670;BME280;18524;45.190;5.732;2022-07-06T06:17:35;99592.06;;;29.87;33.03
15670;BME280;18524;45.190;5.732;2022-07-06T06:22:26;99596.47;;;30.16;32.67
15670;BME280;18524;45.190;5.732;2022-07-06T06:27:16;99607.69;;;30.37;31.63
15670;BME280;18524;45.190;5.732;2022-07-06T06:32:07;99628.28;;;30.49;31.75
15670;BME280;18524;45.190;5.732;2022-07-06T06:36:58;99629.66;;;30.80;31.08
15670;BME280;18524;45.190;5.732;2022-07-06T06:41:48;99634.72;;;30.89;30.57
15670;BME280;18524;45.190;5.732;2022-07-06T06:46:38;99628.31;;;31.11;30.60
15670;BME280;18524;45.190;5.732;2022-07-06T06:51:29;99642.31;;;31.37;30.01
15670;BME280;18524;45.190;5.732;2022-07-06T06:56:20;99631.88;;;31.46;29.93
15670;BME280;18524;45.190;5.732;2022-07-06T07:01:10;99627.16;;;31.58;29.76
15670;BME280;18524;45.190;5.732;2022-07-06T07:06:01;99621.50;;;31.76;29.32
15670;BME280;18524;45.190;5.732;2022-07-06T07:10:51;99625.53;;;31.74;29.67
15670;BME280;18524;45.190;5.732;2022-07-06T07:15:41;99614.94;;;31.94;29.47
15670;BME280;18524;45.190;5.732;2022-07-06T07:20:32;99618.38;;;32.06;29.24
15670;BME280;18524;45.190;5.732;2022-07-06T07:25:23;99629.38;;;32.38;28.81
15670;BME280;18524;45.190;5.732;2022-07-06T07:30:14;99629.00;;;32.51;28.65
15670;BME280;18524;45.190;5.732;2022-07-06T07:35:04;99619.66;;;32.69;28.52
15670;BME280;18524;45.190;5.732;2022-07-06T07:39:54;99612.56;;;32.90;28.29
15670;BME280;18524;45.190;5.732;2022-07-06T07:44:45;99620.97;;;33.20;27.90
15670;BME280;18524;45.190;5.732;2022-07-06T07:49:35;99618.13;;;33.37;27.77
15670;BME280;18524;45.190;5.732;2022-07-06T07:54:26;99614.44;;;33.53;27.30
15670;BME280;18524;45.190;5.732;2022-07-06T07:59:16;99603.69;;;33.79;27.06
15670;BME280;18524;45.190;5.732;2022-07-06T08:04:06;99603.84;;;34.04;26.40
15670;BME280;18524;45.190;5.732;2022-07-06T08:08:57;99595.66;;;33.99;26.03
15670;BME280;18524;45.190;5.732;2022-07-06T08:13:47;99597.84;;;33.97;26.35
15670;BME280;18524;45.190;5.732;2022-07-06T08:18:38;99585.09;;;34.18;25.84
15670;BME280;18524;45.190;5.732;2022-07-06T08:23:28;99578.63;;;34.29;25.94
15670;BME280;18524;45.190;5.732;2022-07-06T08:28:19;99573.78;;;34.46;26.13
15670;BME280;18524;45.190;5.732;2022-07-06T08:33:10;99575.19;;;34.69;25.89
15670;BME280;18524;45.190;5.732;2022-07-06T08:38:00;99571.63;;;34.74;25.20
15670;BME280;18524;45.190;5.732;2022-07-06T08:42:54;99556.66;;;34.87;25.44
15670;BME280;18524;45.190;5.732;2022-07-06T08:47:49;99542.75;;;34.58;25.60
15670;BME280;18524;45.190;5.732;2022-07-06T08:52:39;99549.25;;;34.52;26.02
15670;BME280;18524;45.190;5.732;2022-07-06T08:57:30;99556.34;;;34.42;26.08
15670;BME280;18524;45.190;5.732;2022-07-06T09:02:23;99548.22;;;34.88;25.37
15670;BME280;18524;45.190;5.732;2022-07-06T09:07:15;99561.56;;;35.20;25.32
15670;BME280;18524;45.190;5.732;2022-07-06T09:12:11;99552.03;;;35.07;25.29
15670;BME280;18524;45.190;5.732;2022-07-06T09:17:04;99558.81;;;35.51;24.64
15670;BME280;18524;45.190;5.732;2022-07-06T09:21:54;99557.16;;;35.55;24.38
15670;BME280;18524;45.190;5.732;2022-07-06T09:26:47;99562.00;;;35.68;24.61
15670;BME280;18524;45.190;5.732;2022-07-06T09:31:37;99558.16;;;35.89;24.54
15670;BME280;18524;45.190;5.732;2022-07-06T09:36:45;99545.91;;;35.66;24.58
15670;BME280;18524;45.190;5.732;2022-07-06T09:41:36;99542.66;;;35.59;24.51
15670;BME280;18524;45.190;5.732;2022-07-06T09:46:26;99542.38;;;35.61;24.83
15670;BME280;18524;45.190;5.732;2022-07-06T09:51:16;99551.38;;;35.82;24.21
15670;BME280;18524;45.190;5.732;2022-07-06T09:56:07;99543.16;;;35.87;24.51
15670;BME280;18524;45.190;5.732;2022-07-06T10:00:58;99526.75;;;35.87;23.80
15670;BME280;18524;45.190;5.732;2022-07-06T10:05:48;99522.97;;;35.67;24.71
15670;BME280;18524;45.190;5.732;2022-07-06T10:10:41;99520.00;;;35.69;23.59
15670;BME280;18524;45.190;5.732;2022-07-06T10:15:32;99520.81;;;35.69;24.17
15670;BME280;18524;45.190;5.732;2022-07-06T10:20:22;99520.69;;;36.00;23.70
15670;BME280;18524;45.190;5.732;2022-07-06T10:25:15;99524.38;;;36.29;23.44
15670;BME280;18524;45.190;5.732;2022-07-06T10:30:06;99501.16;;;36.22;22.88
15670;BME280;18524;45.190;5.732;2022-07-06T10:34:57;99514.78;;;36.27;23.16
15670;BME280;18524;45.190;5.732;2022-07-06T10:39:48;99515.56;;;36.43;23.37
15670;BME280;18524;45.190;5.732;2022-07-06T10:44:57;99501.25;;;36.12;23.59
15670;BME280;18524;45.190;5.732;2022-07-06T10:49:48;99509.47;;;36.07;23.75
15670;BME280;18524;45.190;5.732;2022-07-06T10:54:39;99501.94;;;36.32;23.73
15670;BME280;18524;45.190;5.732;2022-07-06T10:59:31;99487.31;;;36.52;23.66
15670;BME280;18524;45.190;5.732;2022-07-06T11:04:30;99494.81;;;36.71;23.34
15670;BME280;18524;45.190;5.732;2022-07-06T11:09:31;99487.63;;;37.09;22.93
15670;BME280;18524;45.190;5.732;2022-07-06T11:14:22;99479.63;;;37.41;22.77
15670;BME280;18524;45.190;5.732;2022-07-06T11:19:17;99477.19;;;36.87;23.35
15670;BME280;18524;45.190;5.732;2022-07-06T11:24:28;99490.34;;;36.85;22.76
15670;BME280;18524;45.190;5.732;2022-07-06T11:29:21;99481.28;;;36.55;23.41
15670;BME280;18524;45.190;5.732;2022-07-06T11:34:17;99474.25;;;36.78;23.44
15670;BME280;18524;45.190;5.732;2022-07-06T11:39:08;99470.50;;;36.69;23.55
15670;BME280;18524;45.190;5.732;2022-07-06T11:43:58;99474.00;;;37.04;23.46
15670;BME280;18524;45.190;5.732;2022-07-06T11:48:50;99466.09;;;37.31;23.28
15670;BME280;18524;45.190;5.732;2022-07-06T11:53:45;99450.84;;;37.25;23.17
15670;BME280;18524;45.190;5.732;2022-07-06T11:58:38;99449.69;;;37.74;22.35
15670;BME280;18524;45.190;5.732;2022-07-06T12:03:29;99437.88;;;37.97;22.11
15670;BME280;18524;45.190;5.732;2022-07-06T12:08:19;99427.47;;;38.32;21.39
15670;BME280;18524;45.190;5.732;2022-07-06T12:13:10;99438.00;;;38.25;21.76
15670;BME280;18524;45.190;5.732;2022-07-06T12:18:00;99426.53;;;38.23;22.07
15670;BME280;18524;45.190;5.732;2022-07-06T12:23:01;99410.53;;;37.73;22.29
15670;BME280;18524;45.190;5.732;2022-07-06T12:27:52;99413.44;;;38.01;22.22
15670;BME280;18524;45.190;5.732;2022-07-06T12:32:42;99416.53;;;38.32;21.72
15670;BME280;18524;45.190;5.732;2022-07-06T12:37:34;99416.75;;;37.79;21.97
15670;BME280;18524;45.190;5.732;2022-07-06T12:42:24;99404.34;;;37.44;22.15
15670;BME280;18524;45.190;5.732;2022-07-06T12:47:20;99399.66;;;37.26;22.91
15670;BME280;18524;45.190;5.732;2022-07-06T12:52:12;99400.13;;;37.33;23.10
15670;BME280;18524;45.190;5.732;2022-07-06T12:57:10;99388.81;;;37.39;22.79
15670;BME280;18524;45.190;5.732;2022-07-06T13:02:04;99390.78;;;37.10;23.23
15670;BME280;18524;45.190;5.732;2022-07-06T13:06:55;99386.25;;;37.00;23.15
15670;BME280;18524;45.190;5.732;2022-07-06T13:11:47;99386.84;;;37.21;22.84
15670;BME280;18524;45.190;5.732;2022-07-06T13:16:37;99382.59;;;36.57;23.58
15670;BME280;18524;45.190;5.732;2022-07-06T13:21:28;99371.16;;;36.79;23.46
15670;BME280;18524;45.190;5.732;2022-07-06T13:26:18;99370.19;;;36.93;23.12
15670;BME280;18524;45.190;5.732;2022-07-06T13:31:09;99367.47;;;36.36;23.82
15670;BME280;18524;45.190;5.732;2022-07-06T13:36:00;99353.81;;;36.36;23.83
15670;BME280;18524;45.190;5.732;2022-07-06T13:40:51;99362.13;;;36.54;24.32
15670;BME280;18524;45.190;5.732;2022-07-06T13:45:41;99367.41;;;36.70;23.39
15670;BME280;18524;45.190;5.732;2022-07-06T13:50:32;99359.41;;;36.20;23.46
15670;BME280;18524;45.190;5.732;2022-07-06T13:55:22;99376.41;;;35.73;24.32
15670;BME280;18524;45.190;5.732;2022-07-06T14:00:13;99358.03;;;35.39;25.41
15670;BME280;18524;45.190;5.732;2022-07-06T14:05:04;99348.75;;;35.85;24.70
15670;BME280;18524;45.190;5.732;2022-07-06T14:09:55;99356.16;;;35.35;24.55
15670;BME280;18524;45.190;5.732;2022-07-06T14:14:45;99362.84;;;34.83;25.68
15670;BME280;18524;45.190;5.732;2022-07-06T14:19:36;99365.06;;;34.66;25.69
15670;BME280;18524;45.190;5.732;2022-07-06T14:24:26;99370.53;;;34.25;25.76
15670;BME280;18524;45.190;5.732;2022-07-06T14:29:17;99360.19;;;33.97;26.11
15670;BME280;18524;45.190;5.732;2022-07-06T14:34:07;99358.00;;;33.83;26.15
15670;BME280;18524;45.190;5.732;2022-07-06T14:38:58;99367.47;;;33.66;26.33
15670;BME280;18524;45.190;5.732;2022-07-06T14:43:48;99358.13;;;33.36;26.80
15670;BME280;18524;45.190;5.732;2022-07-06T14:48:38;99344.13;;;33.07;27.31
15670;BME280;18524;45.190;5.732;2022-07-06T14:53:29;99341.59;;;32.85;27.24
15670;BME280;18524;45.190;5.732;2022-07-06T14:58:20;99337.28;;;32.52;28.12
15670;BME280;18524;45.190;5.732;2022-07-06T15:03:12;99315.13;;;32.28;28.62
15670;BME280;18524;45.190;5.732;2022-07-06T15:08:05;99324.81;;;32.19;28.45
15670;BME280;18524;45.190;5.732;2022-07-06T15:12:55;99335.88;;;32.08;28.69
15670;BME280;18524;45.190;5.732;2022-07-06T15:17:46;99343.56;;;31.89;28.48
15670;BME280;18524;45.190;5.732;2022-07-06T15:22:36;99335.69;;;31.60;30.12
15670;BME280;18524;45.190;5.732;2022-07-06T15:27:27;99325.00;;;31.54;29.14
15670;BME280;18524;45.190;5.732;2022-07-06T15:32:17;99312.69;;;31.41;29.82
15670;BME280;18524;45.190;5.732;2022-07-06T15:37:08;99325.88;;;31.32;29.62
15670;BME280;18524;45.190;5.732;2022-07-06T15:41:58;99327.84;;;31.37;29.99
15670;BME280;18524;45.190;5.732;2022-07-06T15:46:49;99334.28;;;31.31;30.26
15670;BME280;18524;45.190;5.732;2022-07-06T15:51:39;99332.34;;;31.26;30.17
15670;BME280;18524;45.190;5.732;2022-07-06T15:56:30;99319.28;;;31.23;29.92
15670;BME280;18524;45.190;5.732;2022-07-06T16:01:20;99320.75;;;31.14;30.43
15670;BME280;18524;45.190;5.732;2022-07-06T16:06:11;99296.31;;;31.09;30.84
15670;BME280;18524;45.190;5.732;2022-07-06T16:11:01;99294.66;;;31.08;30.02
15670;BME280;18524;45.190;5.732;2022-07-06T16:15:52;99300.84;;;31.03;30.69
15670;BME280;18524;45.190;5.732;2022-07-06T16:20:42;99290.78;;;30.99;30.44
15670;BME280;18524;45.190;5.732;2022-07-06T16:25:32;99283.91;;;30.91;30.79
15670;BME280;18524;45.190;5.732;2022-07-06T16:30:23;99291.91;;;30.81;30.68
15670;BME280;18524;45.190;5.732;2022-07-06T16:35:14;99289.44;;;30.79;30.68
15670;BME280;18524;45.190;5.732;2022-07-06T16:40:04;99272.88;;;30.76;30.84
15670;BME280;18524;45.190;5.732;2022-07-06T16:44:55;99296.91;;;30.51;30.98
15670;BME280;18524;45.190;5.732;2022-07-06T16:49:45;99298.69;;;30.45;31.00
15670;BME280;18524;45.190;5.732;2022-07-06T16:54:36;99291.81;;;30.37;31.39
15670;BME280;18524;45.190;5.732;2022-07-06T16:59:26;99303.97;;;30.35;31.98
15670;BME280;18524;45.190;5.732;2022-07-06T17:04:19;99304.63;;;30.25;31.10
15670;BME280;18524;45.190;5.732;2022-07-06T17:09:09;99314.50;;;30.14;31.94
15670;BME280;18524;45.190;5.732;2022-07-06T17:13:59;99306.06;;;30.11;32.21
15670;BME280;18524;45.190;5.732;2022-07-06T17:18:50;99301.53;;;30.16;30.78
15670;BME280;18524;45.190;5.732;2022-07-06T17:23:40;99298.84;;;30.16;31.58
15670;BME280;18524;45.190;5.732;2022-07-06T17:28:31;99304.78;;;29.85;31.75
15670;BME280;18524;45.190;5.732;2022-07-06T17:33:22;99292.56;;;29.82;32.06
15670;BME280;18524;45.190;5.732;2022-07-06T17:38:13;99307.69;;;29.67;31.84
15670;BME280;18524;45.190;5.732;2022-07-06T17:43:06;99300.28;;;29.74;32.23
15670;BME280;18524;45.190;5.732;2022-07-06T17:47:56;99304.91;;;29.62;32.62
15670;BME280;18524;45.190;5.732;2022-07-06T17:52:47;99304.81;;;29.56;32.79
15670;BME280;18524;45.190;5.732;2022-07-06T17:57:37;99304.66;;;29.46;32.34
15670;BME280;18524;45.190;5.732;2022-07-06T18:02:28;99298.78;;;29.38;33.03
15670;BME280;18524;45.190;5.732;2022-07-06T18:07:18;99294.22;;;29.26;33.49
15670;BME280;18524;45.190;5.732;2022-07-06T18:12:09;99312.72;;;29.18;33.08
15670;BME280;18524;45.190;5.732;2022-07-06T18:17:00;99292.81;;;28.95;33.89
15670;BME280;18524;45.190;5.732;2022-07-06T18:21:50;99315.72;;;28.93;34.16
15670;BME280;18524;45.190;5.732;2022-07-06T18:26:41;99316.44;;;28.88;34.37
15670;BME280;18524;45.190;5.732;2022-07-06T18:31:32;99306.94;;;28.74;34.27
15670;BME280;18524;45.190;5.732;2022-07-06T18:36:23;99313.72;;;28.77;34.13
15670;BME280;18524;45.190;5.732;2022-07-06T18:41:13;99318.69;;;28.68;34.77
15670;BME280;18524;45.190;5.732;2022-07-06T18:46:04;99323.84;;;28.70;34.56
15670;BME280;18524;45.190;5.732;2022-07-06T18:50:54;99320.53;;;28.56;35.23
15670;BME280;18524;45.190;5.732;2022-07-06T18:55:45;99335.09;;;28.55;34.56
15670;BME280;18524;45.190;5.732;2022-07-06T19:00:36;99326.78;;;28.45;35.13
15670;BME280;18524;45.190;5.732;2022-07-06T19:05:26;99343.50;;;28.23;35.52
15670;BME280;18524;45.190;5.732;2022-07-06T19:10:17;99349.75;;;28.24;35.82
15670;BME280;18524;45.190;5.732;2022-07-06T19:15:08;99343.38;;;28.18;35.73
15670;BME280;18524;45.190;5.732;2022-07-06T19:19:58;99349.38;;;28.20;35.71
15670;BME280;18524;45.190;5.732;2022-07-06T19:24:48;99365.31;;;28.10;35.68
15670;BME280;18524;45.190;5.732;2022-07-06T19:29:39;99366.25;;;28.04;35.43
15670;BME280;18524;45.190;5.732;2022-07-06T19:34:29;99374.78;;;27.89;35.88
15670;BME280;18524;45.190;5.732;2022-07-06T19:39:20;99365.25;;;27.87;36.07
15670;BME280;18524;45.190;5.732;2022-07-06T19:44:10;99377.28;;;27.73;36.84
15670;BME280;18524;45.190;5.732;2022-07-06T19:49:00;99384.91;;;27.76;37.17
15670;BME280;18524;45.190;5.732;2022-07-06T19:53:51;99398.84;;;27.73;36.69
15670;BME280;18524;45.190;5.732;2022-07-06T19:58:42;99401.66;;;27.78;36.79
15670;BME280;18524;45.190;5.732;2022-07-06T20:03:32;99409.50;;;27.67;37.14
15670;BME280;18524;45.190;5.732;2022-07-06T20:08:23;99413.13;;;27.73;36.90
15670;BME280;18524;45.190;5.732;2022-07-06T20:13:14;99423.84;;;27.43;37.55
15670;BME280;18524;45.190;5.732;2022-07-06T20:18:04;99424.31;;;27.40;37.30
15670;BME280;18524;45.190;5.732;2022-07-06T20:22:54;99437.50;;;27.30;37.58
15670;BME280;18524;45.190;5.732;2022-07-06T20:27:45;99444.22;;;27.39;37.51
15670;BME280;18524;45.190;5.732;2022-07-06T20:32:36;99440.88;;;27.25;37.88
15670;BME280;18524;45.190;5.732;2022-07-06T20:37:26;99463.09;;;27.21;38.04
15670;BME280;18524;45.190;5.732;2022-07-06T20:42:17;99456.47;;;26.98;37.77
15670;BME280;18524;45.190;5.732;2022-07-06T20:47:08;99462.09;;;26.90;38.13
15670;BME280;18524;45.190;5.732;2022-07-06T20:51:58;99463.31;;;26.94;38.27
15670;BME280;18524;45.190;5.732;2022-07-06T20:56:48;99459.56;;;26.95;38.61
15670;BME280;18524;45.190;5.732;2022-07-06T21:01:40;99468.47;;;26.96;38.23
15670;BME280;18524;45.190;5.732;2022-07-06T21:06:31;99469.69;;;27.00;38.65
15670;BME280;18524;45.190;5.732;2022-07-06T21:11:22;99449.03;;;26.69;38.21
15670;BME280;18524;45.190;5.732;2022-07-06T21:16:13;99464.56;;;26.67;38.92
15670;BME280;18524;45.190;5.732;2022-07-06T21:21:04;99473.41;;;26.74;38.94
15670;BME280;18524;45.190;5.732;2022-07-06T21:25:55;99468.03;;;26.74;38.53
15670;BME280;18524;45.190;5.732;2022-07-06T21:30:46;99479.63;;;26.74;38.49
15670;BME280;18524;45.190;5.732;2022-07-06T21:35:36;99481.38;;;26.62;40.17
15670;BME280;18524;45.190;5.732;2022-07-06T21:40:26;99478.41;;;26.45;40.82
15670;BME280;18524;45.190;5.732;2022-07-06T21:45:17;99485.53;;;26.33;40.31
15670;BME280;18524;45.190;5.732;2022-07-06T21:50:07;99483.34;;;26.17;40.32
15670;BME280;18524;45.190;5.732;2022-07-06T21:54:58;99496.34;;;26.20;40.86
15670;BME280;18524;45.190;5.732;2022-07-06T21:59:48;99489.50;;;26.24;40.45
15670;BME280;18524;45.190;5.732;2022-07-06T22:04:39;99499.47;;;26.17;39.84
15670;BME280;18524;45.190;5.732;2022-07-06T22:09:29;99493.97;;;26.05;39.99
15670;BME280;18524;45.190;5.732;2022-07-06T22:14:20;99509.44;;;26.10;39.79
15670;BME280;18524;45.190;5.732;2022-07-06T22:19:11;99510.09;;;26.05;40.55
15670;BME280;18524;45.190;5.732;2022-07-06T22:24:01;99499.75;;;26.02;40.55
15670;BME280;18524;45.190;5.732;2022-07-06T22:28:51;99501.06;;;25.86;40.82
15670;BME280;18524;45.190;5.732;2022-07-06T22:33:42;99511.19;;;25.84;41.02
15670;BME280;18524;45.190;5.732;2022-07-06T22:38:33;99511.00;;;25.86;40.25
15670;BME280;18524;45.190;5.732;2022-07-06T22:43:23;99522.81;;;25.78;41.09
15670;BME280;18524;45.190;5.732;2022-07-06T22:48:14;99508.16;;;25.74;41.32
15670;BME280;18524;45.190;5.732;2022-07-06T22:53:04;99516.25;;;25.68;41.30
15670;BME280;18524;45.190;5.732;2022-07-06T22:57:55;99516.25;;;25.68;40.93
15670;BME280;18524;45.190;5.732;2022-07-06T23:02:45;99512.31;;;25.70;41.20
15670;BME280;18524;45.190;5.732;2022-07-06T23:07:37;99512.09;;;25.59;41.30
15670;BME280;18524;45.190;5.732;2022-07-06T23:12:27;99514.97;;;25.57;41.39
15670;BME280;18524;45.190;5.732;2022-07-06T23:17:18;99523.28;;;25.42;41.59
15670;BME280;18524;45.190;5.732;2022-07-06T23:22:08;99520.00;;;25.40;41.57
15670;BME280;18524;45.190;5.732;2022-07-06T23:26:59;99528.25;;;25.45;41.97
15670;BME280;18524;45.190;5.732;2022-07-06T23:31:49;99509.22;;;25.53;41.60
15670;BME280;18524;45.190;5.732;2022-07-06T23:36:40;99505.69;;;25.53;41.69
15670;BME280;18524;45.190;5.732;2022-07-06T23:41:30;99506.94;;;25.57;41.67
15670;BME280;18524;45.190;5.732;2022-07-06T23:46:20;99506.72;;;25.65;41.35
15670;BME280;18524;45.190;5.732;2022-07-06T23:51:11;99495.78;;;25.53;41.33
15670;BME280;18524;45.190;5.732;2022-07-06T23:56:01;99489.22;;;25.36;41.44
